Time;durP1;ratioP1;P1;durP2;ratioP2;P2;SDS_P1;SDS_P2;PMS_P1;PMS_P2;Temp;Humidity;BMP_temperature;BMP_pressure;BME280_temperature;BME280_humidity;BME280_pressure;Samples;Min_cycle;Max_cycle;Signal;HPM_P1;HPM_P2
2022/02/13 00:01:21;;;;;;;39.33;20.00;;;;;;;-2.17;70.53;100188.70;2291224;78;21067;-80
2022/02/13 00:04:21;;;;;;;47.23;20.80;;;;;;;-2.21;70.65;100180.27;2291397;78;20904;-78
2022/02/13 00:07:22;;;;;;;;;;;;;;;;;;;;;
2022/02/13 00:10:22;;;;;;;97.10;53.40;;;;;;;1.19;100.00;100167.55;2291064;77;20987;-80
2022/02/13 00:13:23;;;;;;;61.60;31.80;;;;;;;1.70;71.43;100159.42;2290021;78;21566;-80
2022/02/13 00:16:23;;;;;;;53.27;25.60;;;;;;;0.71;68.09;100166.23;2281620;78;20949;-80
2022/02/13 00:19:24;;;;;;;49.50;23.30;;;;;;;-0.04;67.29;100162.42;2281485;78;20898;-80
2022/02/13 00:22:24;;;;;;;45.40;21.27;;;;;;;-0.62;67.85;100167.02;2281605;78;20953;-80
2022/02/13 00:25:25;;;;;;;46.10;22.27;;;;;;;-0.99;68.41;100170.94;2280871;78;20989;-80
2022/02/13 00:28:26;;;;;;;57.30;27.57;;;;;;;-1.30;68.75;100171.09;2280645;78;21340;-80
2022/02/13 00:31:27;;;;;;;50.37;22.27;;;;;;;-1.53;69.29;100164.92;2280752;78;20993;-80
2022/02/13 00:34:27;;;;;;;38.73;20.87;;;;;;;-1.72;69.64;100158.71;2281471;78;21301;-80
2022/02/13 00:37:28;;;;;;;51.80;23.60;;;;;;;-1.88;69.65;100159.10;2281383;78;20934;-80
2022/02/13 00:40:29;;;;;;;536.67;353.47;;;;;;;-2.01;69.89;100159.77;2281583;78;20969;-81
2022/02/13 00:43:29;;;;;;;221.20;130.13;;;;;;;0.58;100.00;100146.48;2281592;78;20938;-81
2022/02/13 00:46:30;;;;;;;78.30;41.37;;;;;;;5.18;79.56;100132.52;2281809;78;20969;-81
2022/02/13 00:49:31;;;;;;;60.30;30.23;;;;;;;3.86;63.96;100125.92;2281780;78;20985;-81
2022/02/13 00:52:32;;;;;;;52.63;24.87;;;;;;;2.16;63.16;100138.55;2281631;78;20922;-81
2022/02/13 00:55:33;;;;;;;54.00;24.47;;;;;;;1.01;63.55;100136.69;2281455;78;20992;-80
2022/02/13 00:58:35;;;;;;;50.43;24.27;;;;;;;0.18;64.36;100133.72;2281691;78;20956;-81
2022/02/13 01:01:36;;;;;;;45.40;23.13;;;;;;;-0.44;65.26;100136.34;2281398;78;21096;-81
2022/02/13 01:04:36;;;;;;;47.07;22.57;;;;;;;-0.90;66.09;100129.36;2281593;78;20962;-80
2022/02/13 01:07:37;;;;;;;49.87;23.87;;;;;;;-1.27;66.71;100132.41;2281628;78;20941;-81
2022/02/13 01:10:39;;;;;;;53.80;25.17;;;;;;;-1.54;67.51;100138.42;2281407;78;20980;-81
2022/02/13 01:13:40;;;;;;;52.60;25.27;;;;;;;-1.77;68.17;100133.09;2277425;77;21386;-81
2022/02/13 01:16:40;;;;;;;51.60;24.13;;;;;;;-1.94;68.62;100127.51;2249274;78;20960;-81
2022/02/13 01:19:41;;;;;;;50.77;24.33;;;;;;;-2.05;69.12;100120.62;2249226;78;20917;-80
2022/02/13 01:22:41;;;;;;;52.63;24.07;;;;;;;-2.19;69.51;100125.39;2249266;79;20912;-80
2022/02/13 01:25:42;;;;;;;50.17;24.13;;;;;;;-2.26;69.94;100121.44;2249246;78;20869;-80
2022/02/13 01:28:42;;;;;;;42.10;22.63;;;;;;;-2.36;70.22;100116.34;2249217;79;21346;-80
2022/02/13 01:31:43;;;;;;;47.23;22.60;;;;;;;-2.47;70.45;100112.89;2248491;78;21018;-81
2022/02/13 01:34:43;;;;;;;49.90;25.03;;;;;;;-2.52;70.83;100106.89;2248456;78;20963;-80
2022/02/13 01:37:44;;;;;;;50.57;23.93;;;;;;;-2.59;71.13;100102.94;2248384;79;20952;-80
2022/02/13 01:40:44;;;;;;;62.50;25.63;;;;;;;-2.67;71.10;100100.98;2248970;79;20921;-80
2022/02/13 01:43:45;;;;;;;50.73;23.30;;;;;;;-2.71;71.45;100100.22;2249304;79;20908;-80
2022/02/13 01:46:45;;;;;;;51.03;24.20;;;;;;;-2.74;71.59;100100.34;2249253;79;20959;-80
2022/02/13 01:49:46;;;;;;;55.10;24.50;;;;;;;-2.78;71.72;100093.19;2249185;78;20952;-80
2022/02/13 01:52:46;;;;;;;54.77;23.73;;;;;;;-2.85;71.94;100089.23;2249343;78;20885;-80
2022/02/13 01:55:47;;;;;;;52.40;24.67;;;;;;;-2.89;71.99;100084.24;2248829;78;21028;-80
2022/02/13 01:58:47;;;;;;;55.43;24.87;;;;;;;-2.89;72.28;100079.52;2248182;79;20889;-80
2022/02/13 02:01:48;;;;;;;50.40;23.23;;;;;;;-2.89;72.32;100077.85;2248374;79;20991;-80
2022/02/13 02:04:50;;;;;;;50.13;23.37;;;;;;;-2.92;72.12;100075.42;2249197;79;20905;-80
2022/02/13 02:07:50;;;;;;;54.47;23.53;;;;;;;-2.95;72.23;100073.89;2249181;78;20984;-80
2022/02/13 02:10:51;;;;;;;51.67;23.97;;;;;;;-2.99;72.27;100069.29;2249414;78;21318;-81
2022/02/13 02:13:51;;;;;;;47.20;22.77;;;;;;;-3.03;72.56;100068.14;2249576;77;20956;-80
2022/02/13 02:16:52;;;;;;;52.60;24.10;;;;;;;-3.05;72.53;100059.84;2249340;79;20992;-80
2022/02/13 02:19:52;;;;;;;50.27;23.13;;;;;;;-3.10;72.53;100053.06;2248926;79;21240;-80
2022/02/13 02:22:53;;;;;;;49.00;22.00;;;;;;;-3.14;72.64;100045.91;2249174;79;20901;-80
2022/02/13 02:25:53;;;;;;;330.57;188.70;;;;;;;-3.15;72.66;100050.50;2249862;79;20940;-82
2022/02/13 02:28:54;;;;;;;99.23;50.77;;;;;;;0.81;100.00;100028.59;2249046;79;20928;-81
2022/02/13 02:31:54;;;;;;;68.17;34.87;;;;;;;1.90;75.59;100022.25;2249425;79;20987;-81
2022/02/13 02:34:55;;;;;;;60.27;28.67;;;;;;;0.73;69.27;100026.28;2249531;79;20952;-81
2022/02/13 02:37:55;;;;;;;54.83;25.73;;;;;;;-0.23;68.04;100027.11;2249516;79;20950;-81
2022/02/13 02:40:55;;;;;;;48.43;24.67;;;;;;;-0.91;68.46;100026.32;2249253;79;20984;-81
2022/02/13 02:43:56;;;;;;;56.30;26.53;;;;;;;-1.39;68.71;100027.32;2249352;79;21315;-81
2022/02/13 02:46:56;;;;;;;55.53;25.80;;;;;;;-1.80;69.25;100023.67;2248692;79;20893;-81
2022/02/13 02:49:57;;;;;;;55.77;25.13;;;;;;;-2.07;69.84;100022.39;2248778;79;20948;-81
2022/02/13 02:52:57;;;;;;;56.30;26.20;;;;;;;-2.29;70.17;100020.16;2248688;79;21011;-81
2022/02/13 02:55:58;;;;;;;50.37;24.60;;;;;;;-2.46;70.62;100017.52;2249258;78;20951;-81
2022/02/13 02:58:59;;;;;;;53.77;24.80;;;;;;;-2.57;70.96;100017.03;2248221;78;20959;-80
2022/02/13 03:01:59;;;;;;;58.63;25.43;;;;;;;-2.68;71.20;100014.84;2248565;78;21066;-80
2022/02/13 03:05:00;;;;;;;53.03;24.83;;;;;;;-2.79;71.30;100017.29;2249376;78;20905;-80
2022/02/13 03:08:00;;;;;;;49.90;23.73;;;;;;;-2.86;71.58;100009.50;2249173;78;21331;-80
2022/02/13 03:11:01;;;;;;;55.93;24.47;;;;;;;-2.93;71.83;100004.66;2249110;79;20949;-80
2022/02/13 03:14:03;;;;;;;55.23;25.53;;;;;;;-2.99;71.99;99998.66;2251781;77;21035;-80
2022/02/13 03:17:06;;;;;;;61.23;27.93;;;;;;;-3.03;72.06;99993.16;2281698;78;20997;-80
2022/02/13 03:20:06;;;;;;;52.53;24.50;;;;;;;-3.08;72.39;99993.16;2281188;78;21471;-80
2022/02/13 03:23:06;;;;;;;48.77;23.70;;;;;;;-3.11;72.38;99991.63;2281050;78;20973;-81
2022/02/13 03:26:07;;;;;;;52.50;25.10;;;;;;;-3.16;72.49;99991.64;2281254;78;20907;-79
2022/02/13 03:29:08;;;;;;;54.23;24.40;;;;;;;-3.19;72.59;99990.10;2280966;78;20961;-79
2022/02/13 03:32:08;;;;;;;48.37;23.37;;;;;;;-3.24;72.77;99988.06;2281379;78;21100;-79
2022/02/13 03:35:09;;;;;;;51.80;23.50;;;;;;;-3.25;72.80;99985.37;2281564;78;20973;-80
2022/02/13 03:38:09;;;;;;;53.83;24.67;;;;;;;-3.29;72.91;99993.55;2281618;78;21321;-78
2022/02/13 03:41:10;;;;;;;51.07;24.43;;;;;;;-3.33;72.91;99992.39;2281698;78;20911;-79
2022/02/13 03:44:10;;;;;;;45.50;23.03;;;;;;;-3.32;73.05;99997.12;2281614;78;20914;-79
2022/02/13 03:47:11;;;;;;;52.53;23.80;;;;;;;-3.33;73.02;99991.50;2280918;78;20954;-79
2022/02/13 03:50:12;;;;;;;56.33;24.70;;;;;;;-3.37;73.18;99982.69;2280962;78;21013;-79
2022/02/13 03:53:12;;;;;;;53.93;22.70;;;;;;;-3.38;73.23;99983.45;2281401;78;21566;-79
2022/02/13 03:56:13;;;;;;;50.27;21.77;;;;;;;-3.37;73.31;99978.86;2280978;78;20930;-80
2022/02/13 03:59:14;;;;;;;60.20;25.90;;;;;;;-3.38;73.23;99971.97;2281478;78;20969;-80
2022/02/13 04:02:14;;;;;;;51.33;25.50;;;;;;;-3.40;73.24;99963.29;2281393;78;21381;-80
2022/02/13 04:05:15;;;;;;;47.83;24.07;;;;;;;-3.41;73.35;99964.05;2281661;78;21270;-80
2022/02/13 04:08:15;;;;;;;48.37;23.10;;;;;;;-3.42;73.43;99954.99;2282233;78;20918;-81
2022/02/13 04:11:16;;;;;;;284.10;157.23;;;;;;;-3.43;73.49;99955.37;2282490;78;21381;-82
2022/02/13 04:14:17;;;;;;;163.00;85.13;;;;;;;-0.59;100.00;99943.23;2280325;77;20938;-82
2022/02/13 04:17:17;;;;;;;76.93;40.23;;;;;;;1.04;82.59;99931.20;2250027;79;20924;-81
2022/02/13 04:20:20;;;;;;;60.87;30.67;;;;;;;0.04;72.25;99934.16;2249739;79;20951;-79
2022/02/13 04:23:20;;;;;;;60.50;27.50;;;;;;;-0.79;70.84;99928.97;2249416;78;20971;-80
2022/02/13 04:26:20;;;;;;;53.80;24.03;;;;;;;-1.40;70.53;99927.82;2249471;78;20949;-79
2022/02/13 04:29:21;;;;;;;52.00;24.77;;;;;;;-1.82;70.55;99929.63;2249430;79;20948;-79
2022/02/13 04:32:22;;;;;;;48.87;24.57;;;;;;;-2.15;70.82;99928.80;2249174;78;20984;-79
2022/02/13 04:35:23;;;;;;;53.50;25.20;;;;;;;-2.39;71.17;99926.86;2249179;79;20956;-79
2022/02/13 04:38:23;;;;;;;45.67;23.50;;;;;;;-2.59;71.36;99914.66;2249286;78;20916;-80
2022/02/13 04:41:24;;;;;;;48.30;24.10;;;;;;;-2.76;71.54;99914.05;2249321;79;21322;-80
2022/02/13 04:44:24;;;;;;;49.80;24.10;;;;;;;-2.91;71.92;99911.14;2249524;79;21283;-79
2022/02/13 04:47:25;;;;;;;49.83;24.67;;;;;;;-2.98;72.19;99907.58;2249486;79;21287;-79
2022/02/13 04:50:25;;;;;;;52.80;25.37;;;;;;;-3.08;72.42;99906.33;2249546;79;21330;-80
2022/02/13 04:53:26;;;;;;;51.87;23.93;;;;;;;-3.13;72.72;99903.78;2249545;78;20956;-80
2022/02/13 04:56:26;;;;;;;478.00;301.93;;;;;;;-3.18;72.86;99899.95;2249500;79;20995;-79
2022/02/13 04:59:29;;;;;;;186.17;106.13;;;;;;;0.80;100.00;99877.73;2249442;79;20948;-80
2022/02/13 05:02:29;;;;;;;104.03;55.43;;;;;;;4.89;90.61;99862.77;2249480;77;21095;-81
2022/02/13 05:05:29;;;;;;;60.70;31.83;;;;;;;3.27;66.49;99864.77;2249729;79;20975;-81
2022/02/13 05:08:30;;;;;;;50.00;25.73;;;;;;;1.57;64.49;99878.09;2249516;79;20924;-80
2022/02/13 05:11:30;;;;;;;47.50;24.20;;;;;;;0.38;65.03;99879.98;2249242;79;20947;-80
2022/02/13 05:14:31;;;;;;;54.27;23.33;;;;;;;-0.51;65.73;99879.28;2249291;78;20963;-80
2022/02/13 05:17:31;;;;;;;48.80;24.07;;;;;;;-1.13;66.41;99879.42;2249357;78;20912;-80
2022/02/13 05:20:32;;;;;;;48.10;23.73;;;;;;;-1.58;67.35;99879.06;2249437;79;20917;-81
2022/02/13 05:23:32;;;;;;;87.77;46.63;;;;;;;-1.94;68.18;99879.29;2249308;79;20924;-80
2022/02/13 05:26:32;;;;;;;55.90;27.50;;;;;;;-2.17;68.73;99880.46;2249215;79;21306;-80
2022/02/13 05:29:33;;;;;;;52.37;23.23;;;;;;;-2.41;69.08;99878.16;2249253;79;21280;-80
2022/02/13 05:32:33;;;;;;;55.17;25.73;;;;;;;-2.62;69.58;99876.04;2248406;79;21355;-79
2022/02/13 05:35:34;;;;;;;50.03;23.57;;;;;;;-2.81;70.15;99876.63;2248374;79;20999;-81
2022/02/13 05:38:34;;;;;;;45.27;23.57;;;;;;;-3.01;70.52;99876.68;2249220;78;20936;-79
2022/02/13 05:41:35;;;;;;;52.53;22.80;;;;;;;-3.12;70.97;99872.36;2249370;79;20915;-80
2022/02/13 05:44:35;;;;;;;50.63;23.30;;;;;;;-3.23;71.21;99873.66;2249634;78;21287;-80
2022/02/13 05:47:37;;;;;;;51.40;23.40;;;;;;;-3.32;71.40;99869.08;2249461;79;21368;-80
2022/02/13 05:50:37;;;;;;;50.07;23.73;;;;;;;-3.40;71.70;99865.39;2249380;78;20932;-80
2022/02/13 05:53:39;;;;;;;51.37;24.10;;;;;;;-3.44;71.99;99860.80;2249548;79;20901;-80
2022/02/13 05:56:41;;;;;;;62.37;23.37;;;;;;;-3.45;72.31;99862.84;2249923;79;21031;-80
2022/02/13 05:59:42;;;;;;;77.23;37.17;;;;;;;-3.46;72.36;99856.84;2249240;78;20932;-80
2022/02/13 06:02:44;;;;;;;52.03;24.80;;;;;;;-3.47;72.46;99861.41;2249289;78;21382;-80
2022/02/13 06:05:44;;;;;;;49.93;23.90;;;;;;;-3.49;72.51;99846.73;2249277;78;20976;-81
2022/02/13 06:08:45;;;;;;;42.07;22.07;;;;;;;-3.51;72.71;99850.43;2249292;79;20913;-80
2022/02/13 06:11:45;;;;;;;49.60;23.60;;;;;;;-3.48;72.73;99853.62;2249272;79;20955;-80
2022/02/13 06:14:46;;;;;;;44.53;21.27;;;;;;;-3.49;72.81;99854.38;2250754;77;21401;-81
2022/02/13 06:17:46;;;;;;;50.23;24.27;;;;;;;-3.45;73.05;99850.08;2282953;77;21287;-81
2022/02/13 06:20:47;;;;;;;50.37;23.17;;;;;;;-3.39;73.05;99854.02;2282817;77;20944;-80
2022/02/13 06:23:47;;;;;;;46.67;22.67;;;;;;;-3.37;73.03;99854.15;2282555;77;20935;-81
2022/02/13 06:26:48;;;;;;;53.50;23.87;;;;;;;-3.31;72.95;99853.38;2286669;78;20955;-81
2022/02/13 06:29:49;;;;;;;46.50;21.30;;;;;;;-3.28;73.02;99849.41;2289819;78;20967;-81
2022/02/13 06:32:50;;;;;;;46.87;22.97;;;;;;;-3.25;72.94;99847.11;2290688;78;21102;-83
2022/02/13 06:35:50;;;;;;;51.70;23.63;;;;;;;-3.25;72.96;99845.83;2291453;78;20932;-81
2022/02/13 06:38:51;;;;;;;45.73;22.30;;;;;;;-3.20;73.09;99843.65;2291463;78;20901;-80
2022/02/13 06:41:51;;;;;;;46.03;21.87;;;;;;;-3.14;72.95;99837.77;2291280;78;21007;-81
2022/02/13 06:44:52;;;;;;;46.73;23.50;;;;;;;-3.05;73.02;99828.67;2291451;78;20909;-80
2022/02/13 06:47:52;;;;;;;46.07;24.40;;;;;;;-2.94;72.93;99822.38;2291464;78;20909;-80
2022/02/13 06:50:53;;;;;;;48.20;22.10;;;;;;;-2.83;72.78;99818.12;2291396;78;21303;-81
2022/02/13 06:53:53;;;;;;;47.37;22.33;;;;;;;-2.69;72.67;99823.93;2291433;78;21291;-83
2022/02/13 06:56:53;;;;;;;55.33;27.33;;;;;;;-2.55;72.44;99810.98;2289672;78;21098;-82
2022/02/13 06:59:54;;;;;;;63.80;31.47;;;;;;;-2.42;72.06;99812.84;2289577;78;20948;-81
2022/02/13 07:02:54;;;;;;;46.70;24.53;;;;;;;-2.31;72.00;99803.94;2291222;78;21423;-80
2022/02/13 07:05:55;;;;;;;44.10;20.73;;;;;;;-2.15;71.88;99806.39;2291239;78;21323;-81
2022/02/13 07:08:56;;;;;;;45.37;21.13;;;;;;;-2.02;71.43;99793.38;2291265;78;21249;-80
2022/02/13 07:11:58;;;;;;;49.47;23.47;;;;;;;-1.89;71.21;99797.75;2290857;78;20905;-80
2022/02/13 07:14:59;;;;;;;42.73;21.37;;;;;;;-1.73;70.91;99795.99;2291148;78;21071;-79
2022/02/13 07:17:59;;;;;;;39.60;21.30;;;;;;;-1.58;70.63;99801.36;2290890;78;20949;-79
2022/02/13 07:20:59;;;;;;;42.47;21.87;;;;;;;-1.47;70.36;99793.69;2279844;78;21012;-79
2022/02/13 07:24:00;;;;;;;47.93;23.00;;;;;;;-1.29;70.12;99800.16;2279986;78;20989;-80
2022/02/13 07:27:01;;;;;;;45.47;21.77;;;;;;;-1.06;69.91;99801.84;2280395;78;20945;-81
2022/02/13 07:30:03;;;;;;;42.53;21.90;;;;;;;-0.87;69.34;99801.88;2258109;78;21369;-81
2022/02/13 07:33:04;;;;;;;46.30;22.43;;;;;;;-0.69;68.98;99796.42;2281358;78;21012;-81
2022/02/13 07:36:04;;;;;;;47.23;23.03;;;;;;;-0.49;68.72;99802.06;2281451;78;20958;-80
2022/02/13 07:39:05;;;;;;;48.27;23.67;;;;;;;-0.24;68.16;99800.81;2281412;78;20934;-79
2022/02/13 07:42:06;;;;;;;52.67;23.07;;;;;;;-0.05;68.03;99798.33;2281403;78;20925;-80
2022/02/13 07:45:06;;;;;;;42.50;21.80;;;;;;;0.14;67.36;99795.37;2281576;78;20883;-80
2022/02/13 07:48:09;;;;;;;47.90;28.30;;;;;;;0.34;67.05;99792.86;2281645;78;20941;-79
2022/02/13 07:51:09;;;;;;;46.03;24.37;;;;;;;0.47;66.27;99782.61;2281626;78;21010;-80
2022/02/13 07:54:10;;;;;;;39.13;21.03;;;;;;;0.63;66.25;99783.22;2281655;78;21340;-80
2022/02/13 07:57:10;;;;;;;43.40;23.20;;;;;;;0.71;65.45;99784.61;2281232;78;20978;-80
2022/02/13 08:00:12;;;;;;;39.67;21.43;;;;;;;0.84;65.48;99794.00;2281091;78;20930;-81
2022/02/13 08:03:12;;;;;;;43.73;21.77;;;;;;;0.95;65.52;99790.09;2280915;78;21032;-80
2022/02/13 08:06:14;;;;;;;37.60;20.87;;;;;;;1.10;64.86;99788.89;2281230;78;20930;-80
2022/02/13 08:09:15;;;;;;;37.63;19.13;;;;;;;1.28;64.59;99787.48;2280814;78;20962;-81
2022/02/13 08:12:16;;;;;;;39.43;20.23;;;;;;;1.41;63.59;99786.97;2281418;78;20915;-80
2022/02/13 08:15:16;;;;;;;36.90;19.30;;;;;;;1.54;63.95;99773.67;2281604;77;20962;-80
2022/02/13 08:18:17;;;;;;;40.33;19.13;;;;;;;1.69;63.76;99776.30;2290643;78;20986;-81
2022/02/13 08:21:17;;;;;;;37.77;19.30;;;;;;;1.88;63.70;99771.52;2291024;78;20967;-80
2022/02/13 08:24:18;;;;;;;35.83;19.47;;;;;;;2.13;63.60;99766.54;2291471;78;20939;-81
2022/02/13 08:27:18;;;;;;;37.33;18.67;;;;;;;2.29;63.20;99762.78;2291320;78;21011;-81
2022/02/13 08:30:18;;;;;;;38.93;20.77;;;;;;;2.46;61.39;99758.61;2290976;78;21100;-81
2022/02/13 08:33:19;;;;;;;34.40;17.67;;;;;;;2.54;62.39;99751.81;2290712;78;21019;-82
2022/02/13 08:36:19;;;;;;;28.40;17.43;;;;;;;2.72;61.15;99752.02;2291451;78;21338;-82
2022/02/13 08:39:20;;;;;;;29.87;17.07;;;;;;;2.81;60.94;99756.80;2291449;78;21334;-82
2022/02/13 08:42:20;;;;;;;27.30;16.20;;;;;;;2.93;61.00;99752.34;2291699;78;20953;-82
2022/02/13 08:45:21;;;;;;;30.20;17.17;;;;;;;3.07;60.50;99744.97;2291551;78;20917;-82
2022/02/13 08:48:22;;;;;;;30.77;16.90;;;;;;;3.16;60.21;99741.61;2291583;78;20917;-83
2022/02/13 08:51:22;;;;;;;65.67;43.27;;;;;;;3.29;59.40;99737.12;2291620;78;20955;-82
2022/02/13 08:54:23;;;;;;;64.30;37.47;;;;;;;3.47;59.91;99732.58;2291817;78;20970;-82
2022/02/13 08:57:23;;;;;;;32.03;19.23;;;;;;;3.66;58.64;99729.28;2291678;78;20936;-82
2022/02/13 09:00:24;;;;;;;33.20;18.27;;;;;;;3.69;58.67;99732.44;2292038;78;20920;-83
2022/02/13 09:03:24;;;;;;;31.63;17.47;;;;;;;3.71;58.80;99733.00;2291742;78;21355;-83
2022/02/13 09:06:25;;;;;;;28.70;16.80;;;;;;;3.78;58.84;99731.22;2291834;78;20924;-83
2022/02/13 09:09:25;;;;;;;32.07;17.50;;;;;;;3.89;58.51;99724.44;2291910;78;20912;-83
2022/02/13 09:12:26;;;;;;;28.93;16.73;;;;;;;4.01;58.53;99725.07;2291951;78;20912;-83
2022/02/13 09:15:30;;;;;;;25.17;15.90;;;;;;;4.20;58.43;99724.31;2291976;78;21387;-83
2022/02/13 09:18:29;;;;;;;30.47;15.97;;;;;;;4.37;57.67;99719.22;2291740;77;20913;-83
2022/02/13 09:21:30;;;;;;;28.77;15.97;;;;;;;4.48;57.90;99724.92;2292594;78;21012;-82
2022/02/13 09:24:30;;;;;;;25.37;15.83;;;;;;;4.47;56.32;99717.98;2292441;78;20936;-82
2022/02/13 09:27:31;;;;;;;28.63;15.80;;;;;;;4.51;56.40;99703.50;2292097;78;21292;-83
2022/02/13 09:30:31;;;;;;;27.43;15.87;;;;;;;4.49;55.86;99698.26;2292424;78;20928;-83
2022/02/13 09:33:32;;;;;;;28.80;16.47;;;;;;;4.53;56.44;99699.30;2292127;78;21003;-83
2022/02/13 09:36:32;;;;;;;26.97;16.23;;;;;;;4.61;56.64;99697.97;2292171;78;20948;-83
2022/02/13 09:39:33;;;;;;;28.77;15.83;;;;;;;4.72;56.58;99699.38;2292183;78;20900;-84
2022/02/13 09:42:33;;;;;;;32.27;16.03;;;;;;;4.83;55.29;99696.02;2292351;78;20944;-82
2022/02/13 09:45:34;;;;;;;44.70;27.20;;;;;;;4.95;56.12;99694.89;2291947;78;20943;-83
2022/02/13 09:48:35;;;;;;;27.43;16.27;;;;;;;5.09;55.98;99687.78;2292329;78;20924;-83
2022/02/13 09:51:35;;;;;;;26.30;15.37;;;;;;;5.20;55.18;99688.28;2292277;78;20901;-82
2022/02/13 09:54:36;;;;;;;24.80;15.43;;;;;;;5.21;54.82;99683.61;2292274;78;21315;-84
2022/02/13 10:00:55;;;;;;;24.20;14.37;;;;;;;5.25;54.87;99695.88;2292154;77;20952;-84
2022/02/13 10:03:56;;;;;;;25.07;13.53;;;;;;;5.34;54.79;99685.95;2291119;78;20992;-84
2022/02/13 10:06:56;;;;;;;23.47;13.67;;;;;;;5.47;54.09;99689.98;2291524;78;20908;-84
2022/02/13 10:09:57;;;;;;;22.90;12.90;;;;;;;5.56;53.50;99680.92;2291289;78;20983;-83
2022/02/13 10:12:57;;;;;;;19.70;12.63;;;;;;;5.69;51.96;99677.17;2291934;78;20916;-84
2022/02/13 10:15:58;;;;;;;22.43;11.67;;;;;;;5.73;51.44;99677.38;2291077;78;20980;-84
2022/02/13 10:18:58;;;;;;;21.03;12.13;;;;;;;5.81;51.21;99672.53;2292073;78;20908;-83
2022/02/13 10:22:00;;;;;;;17.70;10.70;;;;;;;5.87;51.18;99668.02;2292368;78;20948;-83
2022/02/13 10:25:00;;;;;;;18.53;11.17;;;;;;;5.93;50.45;99657.95;2292137;78;20960;-83
2022/02/13 10:28:01;;;;;;;14.03;10.23;;;;;;;5.93;50.45;99657.95;2292015;78;20913;-83
2022/02/13 10:31:03;;;;;;;14.93;10.07;;;;;;;5.94;49.44;99658.44;2292026;78;21002;-83
2022/02/13 10:34:04;;;;;;;14.87;9.33;;;;;;;5.94;48.65;99655.44;2291033;78;21073;-81
2022/02/13 10:37:04;;;;;;;17.27;9.70;;;;;;;5.97;47.91;99649.50;2291590;78;21023;-83
2022/02/13 10:40:04;;;;;;;19.27;10.57;;;;;;;6.04;48.74;99640.75;2292178;78;20970;-83
2022/02/13 10:43:05;;;;;;;20.80;9.93;;;;;;;6.11;48.71;99644.92;2291806;78;20881;-83
2022/02/13 10:46:05;;;;;;;15.73;9.87;;;;;;;6.21;48.86;99630.23;2292155;78;21359;-83
2022/02/13 10:49:06;;;;;;;17.00;9.60;;;;;;;6.24;47.91;99624.77;2292065;78;20971;-82
2022/02/13 10:52:06;;;;;;;16.40;10.17;;;;;;;6.27;47.50;99622.71;2291883;78;20944;-82
2022/02/13 10:55:07;;;;;;;19.37;10.27;;;;;;;6.32;48.03;99616.00;2291835;78;20983;-83
2022/02/13 10:58:07;;;;;;;18.43;10.53;;;;;;;6.42;48.39;99608.19;2291710;78;20972;-81
2022/02/13 11:01:08;;;;;;;19.13;10.33;;;;;;;6.53;48.31;99608.20;2291701;78;20916;-83
2022/02/13 11:04:09;;;;;;;16.10;10.10;;;;;;;6.60;48.16;99607.63;2290962;78;20976;-82
2022/02/13 11:07:09;;;;;;;19.40;9.73;;;;;;;6.64;47.15;99602.61;2292623;78;20920;-82
2022/02/13 11:10:10;;;;;;;14.73;10.10;;;;;;;6.66;47.08;99598.37;2292277;78;21351;-83
2022/02/13 11:13:10;;;;;;;15.33;9.80;;;;;;;6.70;46.67;99591.17;2292525;78;20932;-84
2022/02/13 11:16:11;;;;;;;15.93;9.17;;;;;;;6.68;45.92;99590.23;2292376;78;21018;-82
2022/02/13 11:19:11;;;;;;;16.73;9.80;;;;;;;6.70;47.03;99588.99;2292292;78;20892;-84
2022/02/13 11:22:12;;;;;;;17.70;10.67;;;;;;;6.76;46.73;99574.96;2292467;78;20964;-85
2022/02/13 11:25:13;;;;;;;16.87;10.43;;;;;;;6.79;46.74;99567.30;2292098;78;20924;-84
2022/02/13 11:28:13;;;;;;;17.40;10.20;;;;;;;6.83;46.30;99567.88;2292120;78;20940;-82
2022/02/13 11:31:13;;;;;;;21.03;10.73;;;;;;;6.86;47.12;99560.21;2292011;78;20893;-83
2022/02/13 11:34:14;;;;;;;20.23;11.07;;;;;;;6.90;47.00;99561.21;2292216;78;21410;-83
2022/02/13 11:37:15;;;;;;;14.97;9.50;;;;;;;6.92;47.43;99557.84;2292360;78;21280;-84
2022/02/13 11:40:16;;;;;;;18.97;12.43;;;;;;;6.93;46.48;99551.83;2291868;78;21019;-82
2022/02/13 11:43:16;;;;;;;19.70;11.30;;;;;;;6.94;47.31;99539.36;2291671;78;21324;-81
2022/02/13 11:46:17;;;;;;;19.07;10.97;;;;;;;7.01;47.09;99541.77;2291747;78;20941;-82
2022/02/13 11:49:18;;;;;;;17.07;10.53;;;;;;;7.07;47.38;99541.11;2291637;78;20904;-82
2022/02/13 11:52:18;;;;;;;15.73;10.30;;;;;;;7.09;46.04;99529.95;2291571;78;20955;-84
2022/02/13 11:55:19;;;;;;;37.13;12.00;;;;;;;7.14;46.17;99524.51;2292130;78;20963;-83
2022/02/13 11:58:20;;;;;;;17.70;9.13;;;;;;;7.22;46.24;99524.78;2292096;78;20951;-82
2022/02/13 12:01:20;;;;;;;15.83;9.77;;;;;;;7.27;45.39;99511.55;2292394;78;21347;-82
2022/02/13 12:04:21;;;;;;;15.83;9.93;;;;;;;7.30;46.18;99509.06;2291494;78;21381;-82
2022/02/13 12:07:21;;;;;;;13.30;8.47;;;;;;;7.32;43.69;99503.09;2290991;78;20968;-80
2022/02/13 12:10:22;;;;;;;8.83;6.73;;;;;;;7.34;43.19;99496.23;2291092;78;20945;-80
2022/02/13 12:13:22;;;;;;;14.67;9.17;;;;;;;7.32;42.14;99490.52;2290771;78;20976;-81
2022/02/13 12:16:22;;;;;;;35.73;9.23;;;;;;;7.32;43.78;99482.73;2290575;78;20972;-81
2022/02/13 12:19:23;;;;;;;24.27;8.43;;;;;;;7.34;41.90;99473.28;2290539;78;20952;-80
2022/02/13 12:22:23;;;;;;;16.83;10.43;;;;;;;7.33;41.71;99478.89;2290484;78;20920;-80
2022/02/13 12:25:24;;;;;;;16.03;9.83;;;;;;;7.40;44.01;99467.00;2290487;78;20924;-80
2022/02/13 12:28:24;;;;;;;27.40;9.77;;;;;;;7.48;44.19;99456.86;2290874;78;20933;-81
2022/02/13 12:31:25;;;;;;;16.97;8.60;;;;;;;7.56;43.67;99452.39;2291777;78;20928;-83
2022/02/13 12:34:26;;;;;;;22.93;7.37;;;;;;;7.56;44.22;99452.81;2291750;78;20936;-82
2022/02/13 12:37:26;;;;;;;10.97;7.27;;;;;;;7.50;40.61;99450.89;2291625;78;20967;-82
2022/02/13 12:40:28;;;;;;;10.20;7.00;;;;;;;7.40;40.74;99447.52;2291686;78;21295;-81
2022/02/13 12:43:28;;;;;;;9.67;6.73;;;;;;;7.33;41.33;99441.64;2291732;78;21394;-81
2022/02/13 12:46:30;;;;;;;11.27;6.97;;;;;;;7.27;41.98;99436.24;2291949;78;20915;-81
2022/02/13 12:49:31;;;;;;;12.23;6.90;;;;;;;7.34;41.25;99429.13;2291665;78;21398;-80
2022/02/13 12:52:31;;;;;;;12.37;6.70;;;;;;;7.38;41.56;99432.30;2291506;78;20982;-82
2022/02/13 12:55:32;;;;;;;12.13;7.37;;;;;;;7.35;41.86;99430.89;2290230;78;21417;-83
2022/02/13 12:58:32;;;;;;;22.80;8.03;;;;;;;7.32;41.59;99427.78;2291109;78;21350;-82
2022/02/13 13:01:35;;;;;;;17.47;7.97;;;;;;;7.34;41.08;99421.34;2291883;78;20920;-82
2022/02/13 13:04:35;;;;;;;19.73;7.33;;;;;;;7.34;41.47;99423.94;2294270;77;21077;-81
2022/02/13 13:07:35;;;;;;;19.33;6.87;;;;;;;7.31;40.60;99408.25;2298745;77;20910;-80
2022/02/13 13:10:36;;;;;;;12.07;6.47;;;;;;;7.26;38.95;99409.81;2292059;77;20995;-81
2022/02/13 13:13:36;;;;;;;9.53;6.20;;;;;;;7.22;38.69;99407.52;2291870;78;20927;-81
2022/02/13 13:16:37;;;;;;;20.23;11.87;;;;;;;7.19;39.73;99409.13;2289782;78;21323;-79
2022/02/13 13:19:39;;;;;;;13.63;7.10;;;;;;;7.18;40.52;99409.55;2281566;78;20938;-80
2022/02/13 13:22:39;;;;;;;12.67;6.93;;;;;;;7.19;40.40;99398.75;2281126;78;21001;-82
2022/02/13 13:25:43;;;;;;;8.87;6.50;;;;;;;7.18;39.88;99399.16;2281472;77;20999;-81
2022/02/13 13:28:42;;;;;;;281.13;16.23;;;;;;;7.21;40.36;99400.98;2280685;78;20962;-81
2022/02/13 13:31:43;;;;;;;152.40;10.80;;;;;;;7.23;38.52;99398.02;2282027;78;20957;-81
2022/02/13 13:34:43;;;;;;;9.97;5.80;;;;;;;7.20;39.05;99397.92;2273978;78;21005;-81
2022/02/13 13:37:46;;;;;;;9.37;5.73;;;;;;;7.15;39.75;99397.77;2281571;78;20961;-80
2022/02/13 13:40:52;;;;;;;9.57;5.80;;;;;;;7.18;40.04;99394.39;2281748;77;20983;-80
2022/02/13 13:43:48;;;;;;;10.67;6.27;;;;;;;7.17;39.69;99382.23;2281072;78;20997;-80
2022/02/13 13:46:49;;;;;;;12.23;6.33;;;;;;;7.20;39.43;99384.52;2281765;77;20938;-81
2022/02/13 13:49:49;;;;;;;14.33;6.57;;;;;;;7.21;40.16;99386.28;2282113;78;21298;-82
2022/02/13 13:52:50;;;;;;;9.70;6.23;;;;;;;7.20;39.75;99378.45;2282033;77;21375;-80
2022/02/13 13:55:50;;;;;;;12.87;6.50;;;;;;;7.17;39.42;99371.44;2282048;77;20950;-81
2022/02/13 13:58:51;;;;;;;10.90;5.90;;;;;;;7.15;38.81;99368.32;2281975;77;20942;-81